Time;durP1;ratioP1;P1;durP2;ratioP2;P2;SDS_P1;SDS_P2;PMS_P1;PMS_P2;Temp;Humidity;BMP_temperature;BMP_pressure;BME280_temperature;BME280_humidity;BME280_pressure;Samples;Min_cycle;Max_cycle;Signal;HPM_P1;HPM_P2
2022/10/31 00:01:46;;;;;;;;;1.33;1.33;;;;;24.88;45.20;101824.63;5015142;28;45364;-74
2022/10/31 00:04:11;;;;;;;;;4.00;2.00;;;;;24.89;45.08;101824.44;5015220;28;45377;-73
2022/10/31 00:06:36;;;;;;;;;1.67;1.67;;;;;24.88;45.26;101817.44;5012041;28;45401;-74
2022/10/31 00:09:04;;;;;;;;;3.00;1.00;;;;;24.90;45.32;101825.28;5018556;28;46161;-74
2022/10/31 00:11:30;;;;;;;;;1.00;1.00;;;;;24.90;45.17;101819.94;5018421;28;45384;-74
2022/10/31 00:13:58;;;;;;;;;2.00;2.00;;;;;24.91;45.22;101818.94;5018825;28;45362;-73
2022/10/31 00:16:25;;;;;;;;;2.00;2.00;;;;;24.92;45.25;101817.94;5018481;28;45437;-74
2022/10/31 00:18:52;;;;;;;;;3.00;3.00;;;;;24.83;45.42;101802.00;5028424;28;46220;-74
2022/10/31 00:21:18;;;;;;;;;1.00;1.00;;;;;24.85;45.32;101800.00;5018106;28;45411;-73
2022/10/31 00:23:43;;;;;;;;;3.00;2.00;;;;;24.92;45.08;101813.44;5018327;28;45428;-74
2022/10/31 00:26:08;;;;;;;;;3.33;3.00;;;;;24.91;45.13;101809.13;5018342;28;45295;-74
2022/10/31 00:28:34;;;;;;;;;4.00;3.00;;;;;24.84;45.40;101802.84;5018201;28;45406;-74
2022/10/31 00:31:04;;;;;;;;;2.00;2.00;;;;;24.83;45.07;101803.84;5017966;28;45390;-74
2022/10/31 00:33:29;;;;;;;;;2.00;2.00;;;;;24.79;45.00;101798.06;5018137;28;45311;-74
2022/10/31 00:35:55;;;;;;;;;3.00;2.00;;;;;24.81;45.24;101806.69;5018018;28;45296;-74
2022/10/31 00:38:21;;;;;;;;;3.00;1.00;;;;;24.79;45.33;101798.06;5018009;28;47210;-74
2022/10/31 00:40:46;;;;;;;;;1.67;1.67;;;;;24.87;45.19;101807.00;5018048;28;45287;-74
2022/10/31 00:43:11;;;;;;;;;2.00;2.00;;;;;24.87;45.08;101799.84;5018284;28;45431;-74
2022/10/31 00:45:37;;;;;;;;;1.33;1.00;;;;;24.88;45.25;101808.66;5017386;28;49706;-74
2022/10/31 00:48:02;;;;;;;;;3.00;1.67;;;;;24.83;45.14;101803.84;5017978;28;46039;-74
2022/10/31 00:50:28;;;;;;;;;1.67;1.67;;;;;24.87;45.24;101805.16;5017675;28;45314;-74
2022/10/31 00:52:53;;;;;;;;;1.33;1.33;;;;;24.88;45.10;101801.47;5017811;28;45287;-74
2022/10/31 00:55:18;;;;;;;;;2.00;1.67;;;;;24.88;45.11;101808.66;5017948;28;45388;-74
2022/10/31 00:57:47;;;;;;;;;3.00;3.00;;;;;24.77;45.11;101780.59;5017542;28;47419;-74
2022/10/31 01:00:13;;;;;;;;;4.00;2.00;;;;;24.88;45.12;101803.34;5017675;28;45668;-74
2022/10/31 01:02:38;;;;;;;;;2.00;2.00;;;;;24.63;45.28;101773.19;5017920;28;45676;-73
2022/10/31 01:05:04;;;;;;;;;3.00;3.00;;;;;24.86;45.14;101808.81;5017154;28;45464;-74
2022/10/31 01:07:29;;;;;;;;;2.00;2.00;;;;;24.59;45.08;101761.22;5004457;28;46200;-74
2022/10/31 01:09:54;;;;;;;;;1.00;1.00;;;;;24.80;45.17;101790.91;5028797;28;51153;-74
2022/10/31 01:12:20;;;;;;;;;1.00;1.00;;;;;24.86;45.18;101800.84;5008923;28;45537;-74
2022/10/31 01:14:45;;;;;;;;;2.00;2.00;;;;;24.84;45.11;101793.03;5017640;28;45445;-74
2022/10/31 01:17:11;;;;;;;;;1.00;1.00;;;;;24.88;45.11;101806.00;5022889;28;46728;-73
2022/10/31 01:19:37;;;;;;;;;2.00;2.00;;;;;24.89;45.12;101810.31;5021768;28;45358;-73
2022/10/31 01:22:02;;;;;;;;;3.00;2.67;;;;;24.89;45.10;101803.16;5017370;28;45413;-74
2022/10/31 01:24:27;;;;;;;;;1.33;1.33;;;;;24.80;45.29;101801.56;5017681;28;45414;-73
2022/10/31 01:26:53;;;;;;;;;2.67;2.67;;;;;24.90;45.20;101810.13;5016902;28;56451;-74
2022/10/31 01:29:18;;;;;;;;;3.33;1.67;;;;;24.83;44.92;101795.84;5017526;28;45406;-74
2022/10/31 01:31:43;;;;;;;;;1.67;1.67;;;;;24.84;44.98;101803.69;5017039;28;45438;-73
2022/10/31 01:34:13;;;;;;;;;2.33;2.00;;;;;24.80;45.05;101796.22;5017453;28;45442;-74
2022/10/31 01:36:39;;;;;;;;;1.00;1.00;;;;;24.87;45.02;101799.84;5017141;28;46922;-74
2022/10/31 01:39:07;;;;;;;;;2.00;2.00;;;;;24.84;44.83;101803.69;5017007;28;45442;-74
2022/10/31 01:41:35;;;;;;;;;2.00;2.00;;;;;24.86;44.96;101800.84;5017094;28;45457;-74
2022/10/31 01:44:14;;;;;;;;;1.67;1.00;;;;;24.83;45.05;101799.34;5017151;28;45476;-74
2022/10/31 01:47:03;;;;;;;;;3.00;2.00;;;;;24.84;45.38;101806.34;5017194;28;45337;-74
2022/10/31 01:49:42;;;;;;;;;1.67;1.00;;;;;24.79;45.11;101794.56;5005195;28;45266;-74
2022/10/31 01:52:12;;;;;;;;;2.00;2.00;;;;;24.80;45.00;101793.56;5016922;28;45481;-73
2022/10/31 01:54:45;;;;;;;;;2.33;2.33;;;;;24.87;44.49;101809.66;5017205;28;45231;-74
2022/10/31 01:57:14;;;;;;;;;3.00;2.67;;;;;24.83;45.13;101804.69;5016669;28;46025;-74
2022/10/31 01:59:47;;;;;;;;;2.00;2.00;;;;;24.85;44.95;101815.97;5016932;28;45394;-74
2022/10/31 02:02:14;;;;;;;;;2.00;2.00;;;;;24.85;45.13;101802.66;5016293;28;45391;-74
2022/10/31 02:04:40;;;;;;;;;3.00;3.00;;;;;24.86;44.77;101806.16;5015582;28;45387;-73
2022/10/31 02:07:20;;;;;;;;;2.00;2.00;;;;;24.81;44.64;101779.25;5006530;28;46296;-74
2022/10/31 02:09:48;;;;;;;;;3.00;2.00;;;;;24.88;45.07;101795.34;5014683;28;45448;-74
2022/10/31 02:12:16;;;;;;;;;1.67;1.67;;;;;24.88;44.74;101792.69;5016771;28;45459;-74
2022/10/31 02:14:42;;;;;;;;;3.67;3.67;;;;;24.78;45.00;101779.59;5016692;28;45657;-74
2022/10/31 02:17:07;;;;;;;;;2.00;2.00;;;;;24.87;45.01;101785.69;5020715;28;49925;-74
2022/10/31 02:20:05;;;;;;;;;2.00;2.00;;;;;24.87;44.80;101780.38;5021857;28;45383;-74
2022/10/31 02:22:39;;;;;;;;;3.33;2.00;;;;;24.76;44.79;101762.97;5013359;28;45672;-74
2022/10/31 02:25:23;;;;;;;;;2.00;2.00;;;;;24.84;45.19;101765.59;5016363;28;45517;-73
2022/10/31 02:28:30;;;;;;;;;2.33;2.00;;;;;24.84;44.78;101760.25;5016128;28;45575;-73
2022/10/31 02:31:24;;;;;;;;;2.00;2.00;;;;;24.81;44.91;101756.13;4983962;28;45423;-74
2022/10/31 02:34:02;;;;;;;;;1.00;1.00;;;;;24.73;45.22;101738.38;4976698;28;45384;-73
2022/10/31 02:36:47;;;;;;;;;2.00;2.00;;;;;24.66;44.90;101729.44;4994625;28;45308;-74
2022/10/31 02:39:30;;;;;;;;;1.00;1.00;;;;;24.82;44.91;101762.28;4982666;28;46214;-74
2022/10/31 02:42:08;;;;;;;;;2.00;2.00;;;;;24.65;44.78;101730.44;4994044;28;45340;-74
2022/10/31 02:44:45;;;;;;;;;2.00;2.00;;;;;24.82;44.76;101752.47;4994137;28;45429;-73
2022/10/31 02:47:19;;;;;;;;;2.00;1.00;;;;;24.80;44.90;101743.81;4993465;28;45367;-73
2022/10/31 02:49:59;;;;;;;;;1.67;1.67;;;;;24.82;44.86;101741.00;4994059;28;46252;-74
2022/10/31 02:52:27;;;;;;;;;1.00;1.00;;;;;24.69;44.85;101717.63;4993769;28;45429;-73
2022/10/31 02:54:53;;;;;;;;;2.00;1.33;;;;;24.81;44.87;101740.16;4993862;28;45300;-74
2022/10/31 02:57:30;;;;;;;;;2.00;1.00;;;;;24.82;44.86;101738.31;4993930;28;45489;-74
2022/10/31 03:00:06;;;;;;;;;2.00;2.00;;;;;24.81;44.76;101739.31;4993971;28;46119;-74
2022/10/31 03:03:05;;;;;;;;;2.00;2.00;;;;;24.80;44.66;101743.00;4993686;28;45548;-74
2022/10/31 03:05:37;;;;;;;;;1.00;1.00;;;;;24.80;44.90;101735.81;5010960;28;45312;-74
2022/10/31 03:08:14;;;;;;;;;2.00;2.00;;;;;24.81;44.79;101728.66;5001904;28;45430;-74
2022/10/31 03:10:45;;;;;;;;;2.33;2.33;;;;;24.80;44.68;101722.50;5015514;28;47244;-74
2022/10/31 03:13:18;;;;;;;;;2.00;1.00;;;;;24.73;44.69;101703.78;5015607;28;45438;-74
2022/10/31 03:15:49;;;;;;;;;2.00;2.00;;;;;24.80;44.90;101722.50;5015406;28;45321;-73
2022/10/31 03:18:28;;;;;;;;;3.33;2.00;;;;;24.79;44.99;101704.91;5025851;28;45578;-74
2022/10/31 03:21:02;;;;;;;;;2.00;2.00;;;;;24.81;44.92;101712.69;5015439;28;46240;-73
2022/10/31 03:23:31;;;;;;;;;2.00;2.00;;;;;24.80;44.45;101703.88;5013903;28;46590;-74
2022/10/31 03:26:02;;;;;;;;;1.67;1.00;;;;;24.80;44.80;101703.88;5015763;28;45394;-73
2022/10/31 03:28:35;;;;;;;;;2.00;2.00;;;;;24.81;44.86;101705.56;5015705;28;45376;-74
2022/10/31 03:31:03;;;;;;;;;1.00;1.00;;;;;24.75;44.80;101692.94;5014623;28;45342;-74
2022/10/31 03:33:34;;;;;;;;;2.00;2.00;;;;;24.81;44.91;101697.56;5015234;28;45356;-74
2022/10/31 03:36:04;;;;;;;;;4.67;1.00;;;;;24.75;44.50;101692.94;5015602;28;45414;-74
2022/10/31 03:38:31;;;;;;;;;1.33;1.33;;;;;24.52;44.49;101657.38;5015380;28;45345;-74
2022/10/31 03:41:01;;;;;;;;;3.00;1.00;;;;;24.80;44.70;101701.22;5014070;28;47122;-74
2022/10/31 03:43:32;;;;;;;;;3.00;2.00;;;;;24.80;44.56;101690.56;5015172;28;45204;-73
2022/10/31 03:45:57;;;;;;;;;3.00;2.00;;;;;24.72;44.80;101683.50;5015223;28;45431;-73
2022/10/31 03:48:23;;;;;;;;;2.00;2.00;;;;;24.81;44.65;101697.56;5015254;28;45483;-73
2022/10/31 03:51:01;;;;;;;;;1.33;1.00;;;;;24.81;44.73;101696.72;5015027;28;46059;-74
2022/10/31 03:53:31;;;;;;;;;1.67;1.67;;;;;24.82;44.71;101691.25;5015520;28;45239;-74
2022/10/31 03:56:13;;;;;;;;;3.33;3.33;;;;;24.81;44.70;101688.75;5015603;28;45389;-74
2022/10/31 03:58:47;;;;;;;;;1.33;1.33;;;;;24.65;44.81;101666.59;5014899;28;45526;-74
2022/10/31 04:01:16;;;;;;;;;0.00;0.00;;;;;24.81;44.75;101692.25;5015294;28;45351;-74
2022/10/31 04:03:44;;;;;;;;;1.67;1.67;;;;;24.79;44.67;101688.94;5015170;28;45400;-74
2022/10/31 04:06:14;;;;;;;;;2.67;1.00;;;;;24.79;44.69;101696.09;5012983;28;45488;-74
2022/10/31 04:08:50;;;;;;;;;1.00;1.00;;;;;24.76;44.53;101678.66;5004072;28;45477;-74
2022/10/31 04:11:21;;;;;;;;;1.00;1.00;;;;;24.71;44.49;101675.69;5014788;28;47355;-73
2022/10/31 04:13:48;;;;;;;;;1.00;1.00;;;;;24.70;44.47;101672.19;5014675;28;45237;-73
2022/10/31 04:16:16;;;;;;;;;1.00;1.00;;;;;24.75;44.37;101695.59;5014859;28;45299;-74
2022/10/31 04:18:41;;;;;;;;;1.00;1.00;;;;;24.65;44.52;101677.22;5025084;28;45490;-74
2022/10/31 04:21:07;;;;;;;;;1.67;1.00;;;;;24.74;44.73;101692.16;5014546;28;46221;-74
2022/10/31 04:23:35;;;;;;;;;1.00;1.00;;;;;24.65;44.66;101666.59;5014614;28;45843;-74
2022/10/31 04:26:00;;;;;;;;;1.67;1.67;;;;;24.62;44.51;101666.94;5015121;28;45342;-74
2022/10/31 04:28:25;;;;;;;;;2.00;2.00;;;;;24.78;44.65;101700.59;5013154;28;45664;-74
2022/10/31 04:30:51;;;;;;;;;1.00;1.00;;;;;24.79;44.69;101693.44;5014358;28;47127;-74
2022/10/31 04:33:17;;;;;;;;;2.00;2.00;;;;;24.70;44.67;101680.19;5014788;28;45413;-74
2022/10/31 04:35:43;;;;;;;;;1.00;1.00;;;;;24.76;44.63;101686.63;5014875;28;45382;-74
2022/10/31 04:38:08;;;;;;;;;1.00;1.00;;;;;24.76;44.66;101688.47;5015138;28;45307;-74
2022/10/31 04:40:33;;;;;;;;;2.00;2.00;;;;;24.73;44.62;101671.84;5013122;28;47287;-74
2022/10/31 04:42:59;;;;;;;;;1.33;1.33;;;;;24.66;44.49;101654.94;5014177;28;45244;-74
2022/10/31 04:45:24;;;;;;;;;2.00;2.00;;;;;24.70;44.64;101656.22;5014578;28;45301;-74
2022/10/31 04:47:50;;;;;;;;;1.00;1.00;;;;;24.67;44.76;101648.59;5014914;28;45577;-74
2022/10/31 04:50:15;;;;;;;;;2.00;2.00;;;;;24.58;44.76;101631.91;5014144;28;45649;-74
2022/10/31 04:52:42;;;;;;;;;1.00;1.00;;;;;24.73;44.39;101655.88;5016949;28;45346;-73
2022/10/31 04:55:08;;;;;;;;;1.67;1.00;;;;;24.61;44.58;101633.38;5018274;28;45338;-73
2022/10/31 04:57:43;;;;;;;;;1.33;1.33;;;;;24.70;44.57;101642.09;5017523;28;45448;-73
2022/10/31 05:00:11;;;;;;;;;2.67;1.00;;;;;24.76;44.81;101656.53;5018046;28;45516;-74
2022/10/31 05:02:43;;;;;;;;;1.00;1.00;;;;;24.76;44.52;101659.19;5017807;28;45452;-73
2022/10/31 05:05:09;;;;;;;;;1.00;1.00;;;;;24.74;44.55;101662.88;5017804;28;45291;-73
2022/10/31 05:07:39;;;;;;;;;1.67;1.67;;;;;24.74;44.67;101657.56;5003853;28;45453;-74
2022/10/31 05:10:05;;;;;;;;;1.67;1.67;;;;;24.75;44.46;101647.72;5004241;28;46415;-73
2022/10/31 05:12:30;;;;;;;;;2.00;2.00;;;;;24.68;44.28;101644.94;5017073;28;45517;-73
2022/10/31 05:14:55;;;;;;;;;1.67;1.67;;;;;24.71;44.56;101639.28;5017517;28;45339;-73
2022/10/31 05:17:21;;;;;;;;;1.00;1.00;;;;;24.68;44.57;101622.84;5024032;28;50399;-74
2022/10/31 05:19:46;;;;;;;;;1.33;1.33;;;;;24.75;44.49;101634.41;5021127;28;45378;-74
2022/10/31 05:22:11;;;;;;;;;3.00;1.67;;;;;24.77;44.41;101631.59;5017265;28;48143;-74
2022/10/31 05:24:36;;;;;;;;;2.00;1.67;;;;;24.73;44.58;101621.28;5017443;28;45401;-74
2022/10/31 05:27:02;;;;;;;;;0.67;0.67;;;;;24.76;44.51;101628.09;5017216;28;45437;-74
2022/10/31 05:29:27;;;;;;;;;1.00;1.00;;;;;24.66;44.45;101607.06;5017330;28;45421;-74
2022/10/31 05:31:52;;;;;;;;;1.00;1.00;;;;;24.78;44.42;101619.91;5016972;28;45628;-74
2022/10/31 05:34:18;;;;;;;;;1.00;1.00;;;;;24.79;44.25;101621.56;5017158;28;46055;-74
2022/10/31 05:36:43;;;;;;;;;1.33;1.33;;;;;24.76;44.30;101608.63;5017315;28;45365;-74
2022/10/31 05:39:08;;;;;;;;;2.33;2.00;;;;;24.66;44.52;101599.06;5016989;28;45362;-73
2022/10/31 05:41:34;;;;;;;;;3.00;1.00;;;;;24.72;44.33;101606.31;5016942;28;45413;-74
2022/10/31 05:43:59;;;;;;;;;1.67;1.67;;;;;24.68;44.53;101598.88;5017290;28;45437;-74
2022/10/31 05:46:24;;;;;;;;;1.00;1.00;;;;;24.62;44.59;101587.94;5017267;28;45337;-74
2022/10/31 05:48:49;;;;;;;;;2.00;1.00;;;;;24.78;44.48;101606.59;5016905;28;46142;-74
2022/10/31 05:51:15;;;;;;;;;1.00;1.00;;;;;24.76;44.49;101604.13;5017479;28;45321;-74
2022/10/31 05:53:40;;;;;;;;;2.00;1.00;;;;;24.71;44.46;101599.38;5017069;28;45437;-74
2022/10/31 05:56:06;;;;;;;;;1.33;1.33;;;;;24.74;44.49;101607.00;5016502;28;47733;-73
2022/10/31 05:58:31;;;;;;;;;1.00;1.00;;;;;24.71;44.41;101602.03;5017024;28;46942;-73
2022/10/31 06:00:56;;;;;;;;;3.00;2.67;;;;;24.73;44.48;101607.16;5016531;28;47863;-73
2022/10/31 06:03:21;;;;;;;;;1.00;1.00;;;;;24.62;44.45;101592.44;5016154;28;45238;-74
2022/10/31 06:05:47;;;;;;;;;2.00;2.00;;;;;24.72;44.45;101608.97;5016941;28;45432;-74
2022/10/31 06:08:12;;;;;;;;;1.00;1.00;;;;;24.70;44.45;101604.84;5002604;28;45787;-74
2022/10/31 06:10:37;;;;;;;;;2.00;2.00;;;;;24.70;44.26;101599.53;5016440;28;45434;-74
2022/10/31 06:13:03;;;;;;;;;2.00;2.00;;;;;24.37;44.28;101547.44;5016727;28;45328;-74
2022/10/31 06:15:28;;;;;;;;;1.00;1.00;;;;;24.73;44.09;101604.50;5016663;28;45461;-74
2022/10/31 06:18:01;;;;;;;;;1.33;1.33;;;;;24.68;44.20;101588.25;5026932;28;46221;-74
2022/10/31 06:20:27;;;;;;;;;1.67;1.00;;;;;24.66;44.62;101591.09;5016386;28;45251;-74
2022/10/31 06:22:52;;;;;;;;;1.00;1.00;;;;;24.71;44.52;101594.03;5016363;28;45290;-74
2022/10/31 06:25:17;;;;;;;;;1.67;1.67;;;;;24.70;44.38;101587.06;5016389;28;45443;-74
2022/10/31 06:27:42;;;;;;;;;0.00;0.00;;;;;24.60;44.28;101574.00;5016605;28;46253;-73
2022/10/31 06:30:08;;;;;;;;;1.00;1.00;;;;;24.66;44.56;101571.63;5016255;28;45242;-73
2022/10/31 06:32:34;;;;;;;;;2.00;2.00;;;;;24.70;44.48;101579.06;5016415;28;45353;-74
2022/10/31 06:34:59;;;;;;;;;2.00;2.00;;;;;24.62;44.37;101566.66;5016216;28;45204;-74
2022/10/31 06:37:24;;;;;;;;;0.00;0.00;;;;;24.72;44.53;101570.94;5016425;28;46069;-74
2022/10/31 06:39:49;;;;;;;;;1.00;1.00;;;;;24.66;44.55;101559.16;5015977;28;45368;-73
2022/10/31 06:42:16;;;;;;;;;1.33;1.00;;;;;24.72;44.11;101563.75;5016009;28;45375;-73
2022/10/31 06:44:41;;;;;;;;;1.00;1.00;;;;;24.58;44.32;101536.13;5016364;28;45529;-74
2022/10/31 06:47:07;;;;;;;;;1.00;1.00;;;;;24.69;44.35;101553.50;5015879;28;46211;-74
2022/10/31 06:49:32;;;;;;;;;1.00;1.00;;;;;24.60;44.50;101539.41;5016080;28;45343;-74
2022/10/31 06:51:57;;;;;;;;;1.00;1.00;;;;;24.71;44.42;101556.78;5016290;28;45409;-74
2022/10/31 06:54:23;;;;;;;;;2.00;2.00;;;;;24.61;44.52;101541.09;5015684;28;45547;-73
2022/10/31 06:56:48;;;;;;;;;2.00;2.00;;;;;24.71;44.39;101556.78;5015844;28;46077;-74
2022/10/31 06:59:14;;;;;;;;;1.00;1.00;;;;;24.71;44.52;101562.09;5016016;28;45479;-74
2022/10/31 07:01:40;;;;;;;;;2.00;2.00;;;;;24.70;44.49;101554.28;5016080;28;45399;-74
2022/10/31 07:04:05;;;;;;;;;1.00;1.00;;;;;24.70;44.38;101548.97;5015771;28;45459;-74
2022/10/31 07:06:30;;;;;;;;;1.00;1.00;;;;;24.70;44.34;101541.00;5010712;28;45307;-74
2022/10/31 07:08:55;;;;;;;;;2.00;2.00;;;;;24.70;44.00;101535.66;5006629;28;45339;-74
2022/10/31 07:11:21;;;;;;;;;2.00;1.00;;;;;24.62;44.18;101525.94;5015827;28;45315;-74
2022/10/31 07:13:46;;;;;;;;;2.00;2.00;;;;;24.70;44.30;101538.31;5015860;28;45335;-74
2022/10/31 07:16:13;;;;;;;;;1.00;1.00;;;;;24.68;44.23;101525.22;5015174;28;46560;-74
2022/10/31 07:18:39;;;;;;;;;1.00;1.00;;;;;24.61;44.44;101529.63;5026334;28;45293;-73
2022/10/31 07:21:04;;;;;;;;;2.00;1.00;;;;;24.70;44.17;101544.47;5015289;28;45303;-74
2022/10/31 07:23:30;;;;;;;;;1.00;1.00;;;;;24.65;44.06;101541.53;5015385;28;45324;-74
2022/10/31 07:25:56;;;;;;;;;2.00;1.00;;;;;24.66;44.10;101545.03;5015401;28;46974;-74
2022/10/31 07:28:22;;;;;;;;;1.33;1.33;;;;;24.68;44.03;101543.84;5015615;28;45319;-74
2022/10/31 07:30:52;;;;;;;;;1.00;1.00;;;;;24.70;44.32;101543.66;5015271;28;45339;-74
2022/10/31 07:33:17;;;;;;;;;1.00;1.00;;;;;24.69;44.31;101544.66;5015565;28;45527;-74
2022/10/31 07:35:43;;;;;;;;;1.00;1.00;;;;;24.69;44.34;101539.34;5015114;28;46174;-74
2022/10/31 07:38:10;;;;;;;;;2.33;1.33;;;;;24.69;44.42;101540.19;5015507;28;45351;-74
2022/10/31 07:40:35;;;;;;;;;1.00;1.00;;;;;24.71;44.19;101529.34;5015629;28;45453;-74
2022/10/31 07:43:00;;;;;;;;;3.00;1.00;;;;;24.70;44.13;101530.34;5015311;28;45441;-74
2022/10/31 07:45:26;;;;;;;;;2.67;1.00;;;;;24.69;44.28;101526.88;5013749;28;46967;-73
2022/10/31 07:47:52;;;;;;;;;1.00;1.00;;;;;24.63;44.42;101506.31;5015419;28;45410;-74
2022/10/31 07:50:29;;;;;;;;;2.00;0.67;;;;;24.67;44.21;101504.13;5015029;28;45468;-73
2022/10/31 07:53:01;;;;;;;;;2.00;1.00;;;;;24.68;44.06;101503.09;5015307;28;45462;-74
2022/10/31 07:55:27;;;;;;;;;1.00;1.00;;;;;24.58;44.39;101498.03;5014941;28;46174;-74
2022/10/31 07:58:01;;;;;;;;;2.00;2.00;;;;;24.69;44.28;101523.38;5015114;28;45409;-73
2022/10/31 08:00:26;;;;;;;;;2.00;2.00;;;;;24.69;44.08;101512.75;5015155;28;45326;-74
2022/10/31 08:03:03;;;;;;;;;1.00;1.00;;;;;24.70;44.35;101517.03;5015162;28;45319;-74
2022/10/31 08:05:29;;;;;;;;;1.00;0.67;;;;;24.69;44.10;101520.72;5014427;28;46045;-74
2022/10/31 08:07:55;;;;;;;;;1.00;1.00;;;;;24.36;44.42;101466.00;5001182;28;45347;-74
2022/10/31 08:10:22;;;;;;;;;1.00;1.00;;;;;24.56;44.32;101498.25;5015258;28;45470;-74
2022/10/31 08:12:54;;;;;;;;;1.00;1.00;;;;;24.68;44.27;101514.56;5014822;28;45495;-74
2022/10/31 08:15:19;;;;;;;;;1.00;1.00;;;;;24.61;44.36;101501.19;5015189;28;45384;-74
2022/10/31 08:17:44;;;;;;;;;1.33;1.33;;;;;24.68;44.38;101497.78;5024755;28;45288;-73
2022/10/31 08:20:10;;;;;;;;;1.00;1.00;;;;;24.68;44.25;101497.78;5027120;28;45369;-74
2022/10/31 08:22:35;;;;;;;;;1.67;1.00;;;;;24.69;44.26;101494.13;5013776;28;45435;-73
2022/10/31 08:25:00;;;;;;;;;1.00;1.00;;;;;24.66;44.27;101473.19;5014659;28;45417;-74
2022/10/31 08:27:27;;;;;;;;;1.00;1.00;;;;;24.66;44.15;101470.53;5016948;28;45299;-74
2022/10/31 08:29:52;;;;;;;;;1.00;1.00;;;;;24.66;44.28;101467.88;5018362;28;45286;-74
2022/10/31 08:32:17;;;;;;;;;1.00;1.00;;;;;24.66;44.24;101463.38;5017620;28;53779;-74
2022/10/31 08:34:42;;;;;;;;;0.00;0.00;;;;;24.66;44.21;101481.19;5018104;28;47466;-74
2022/10/31 08:37:08;;;;;;;;;1.00;1.00;;;;;24.68;44.20;101466.69;5018057;28;45605;-74
2022/10/31 08:39:33;;;;;;;;;1.67;1.00;;;;;24.65;44.27;101450.25;5018088;28;45344;-74
2022/10/31 08:41:58;;;;;;;;;4.00;1.00;;;;;24.69;44.38;101454.22;5018375;28;45462;-74
2022/10/31 08:44:24;;;;;;;;;2.00;2.00;;;;;24.63;44.28;101445.13;5017859;28;45815;-74
2022/10/31 08:46:49;;;;;;;;;1.00;1.00;;;;;24.68;44.28;101447.22;5018021;28;45308;-74
2022/10/31 08:49:14;;;;;;;;;0.00;0.00;;;;;24.70;44.27;101453.19;5018041;28;45215;-74
2022/10/31 08:51:39;;;;;;;;;1.00;1.00;;;;;24.70;44.42;101448.69;5018162;28;45458;-74
2022/10/31 08:54:05;;;;;;;;;3.00;2.00;;;;;24.63;44.43;101427.31;5017988;28;46196;-74
2022/10/31 08:56:30;;;;;;;;;2.00;2.00;;;;;24.70;44.32;101429.22;5017814;28;45303;-74
2022/10/31 08:58:56;;;;;;;;;0.67;0.67;;;;;24.59;44.31;101403.94;5017935;28;45414;-74
2022/10/31 09:01:21;;;;;;;;;1.33;1.33;;;;;24.71;44.52;101425.56;5016682;28;45395;-74
2022/10/31 09:03:46;;;;;;;;;1.00;1.00;;;;;24.70;44.17;101416.75;5017393;28;46060;-74
2022/10/31 09:06:12;;;;;;;;;1.00;1.00;;;;;24.60;44.22;101411.72;5015220;28;45406;-74
2022/10/31 09:08:37;;;;;;;;;2.00;0.67;;;;;24.68;44.31;101408.16;5006554;28;45389;-73
2022/10/31 09:11:03;;;;;;;;;3.00;0.67;;;;;24.65;44.63;101403.19;5017577;28;45610;-74
2022/10/31 09:13:29;;;;;;;;;1.00;1.00;;;;;24.65;44.19;101386.38;5017657;28;45451;-73
2022/10/31 09:15:56;;;;;;;;;1.67;1.67;;;;;24.62;44.19;101385.75;5017637;28;45553;-73
2022/10/31 09:18:23;;;;;;;;;1.00;1.00;;;;;24.72;44.36;101388.13;5027635;28;45343;-73
2022/10/31 09:20:49;;;;;;;;;1.00;1.00;;;;;24.43;44.21;101338.44;5017617;28;45320;-73
2022/10/31 09:23:19;;;;;;;;;2.00;1.00;;;;;24.70;44.22;101378.69;5017453;28;45313;-73
2022/10/31 09:25:46;;;;;;;;;1.00;1.00;;;;;24.72;44.04;101376.69;5017456;28;45375;-74
2022/10/31 09:28:15;;;;;;;;;1.33;1.33;;;;;24.74;44.39;101377.31;5017450;28;45333;-74
2022/10/31 09:30:41;;;;;;;;;1.67;1.00;;;;;24.69;44.10;101361.91;5017596;28;45853;-73
2022/10/31 09:33:10;;;;;;;;;1.00;1.00;;;;;24.54;44.41;101345.16;5016939;28;47432;-73
2022/10/31 09:35:35;;;;;;;;;2.67;2.00;;;;;24.49;44.24;101330.53;5017102;28;45480;-74
2022/10/31 09:38:04;;;;;;;;;1.00;1.00;;;;;24.79;44.40;101363.44;5016287;28;45736;-74
2022/10/31 09:40:39;;;;;;;;;0.67;0.00;;;;;24.79;44.26;101348.31;5017328;28;45414;-74
2022/10/31 09:43:22;;;;;;;;;0.00;0.00;;;;;24.80;44.27;101351.81;5017102;28;46147;-74
2022/10/31 09:46:01;;;;;;;;;3.33;1.00;;;;;24.82;44.34;101349.78;5017020;28;45323;-74
2022/10/31 09:48:50;;;;;;;;;0.00;0.00;;;;;24.80;44.30;101326.00;5017189;28;45373;-74
2022/10/31 09:51:37;;;;;;;;;0.33;0.33;;;;;24.80;44.13;101325.19;5017080;28;45524;-74
2022/10/31 09:54:41;;;;;;;;;2.00;1.33;;;;;24.80;44.10;101325.19;5016942;28;45485;-74
2022/10/31 09:57:14;;;;;;;;;2.00;1.00;;;;;24.81;44.34;101324.16;4974890;28;45369;-74
2022/10/31 09:59:41;;;;;;;;;1.00;1.00;;;;;24.70;44.02;101302.34;4975325;28;45516;-73
2022/10/31 10:02:31;;;;;;;;;0.00;0.00;;;;;24.81;44.31;101317.00;4974761;28;45434;-74
2022/10/31 10:04:59;;;;;;;;;0.00;0.00;;;;;24.81;44.25;101305.53;4974970;28;46434;-74
2022/10/31 10:08:09;;;;;;;;;1.00;1.00;;;;;24.83;44.34;101308.81;4975058;28;45426;-74
2022/10/31 10:10:49;;;;;;;;;1.00;1.00;;;;;24.77;44.15;101297.13;4970276;28;45560;-74
2022/10/31 10:13:26;;;;;;;;;1.00;1.00;;;;;24.82;44.22;101305.38;4975048;28;45448;-73
2022/10/31 10:16:19;;;;;;;;;1.33;1.33;;;;;24.79;44.28;101305.72;4974395;28;46893;-73
2022/10/31 10:18:50;;;;;;;;;1.33;1.33;;;;;24.82;43.97;101308.03;4985023;28;45587;-74
2022/10/31 10:21:44;;;;;;;;;0.00;0.00;;;;;24.77;44.13;101297.13;4974813;28;45444;-74
2022/10/31 10:24:23;;;;;;;;;0.33;0.33;;;;;24.76;44.34;101282.16;4975051;28;45440;-74
2022/10/31 10:27:14;;;;;;;;;1.00;1.00;;;;;24.82;43.95;101289.41;4974626;28;46350;-74
2022/10/31 10:29:50;;;;;;;;;0.33;0.33;;;;;24.76;44.21;101268.84;4974762;28;45360;-74
2022/10/31 10:32:47;;;;;;;;;0.00;0.00;;;;;24.81;44.23;101261.13;4974452;28;45463;-74
2022/10/31 10:35:29;;;;;;;;;0.67;0.33;;;;;24.79;44.41;101257.00;5013158;28;45508;-74
2022/10/31 10:38:02;;;;;;;;;3.00;1.33;;;;;24.80;44.24;101261.31;5016372;28;45436;-74
2022/10/31 10:40:29;;;;;;;;;0.00;0.00;;;;;24.69;44.09;101233.38;5016109;28;45400;-74
2022/10/31 10:43:33;;;;;;;;;0.00;0.00;;;;;24.81;44.05;101239.00;5016205;28;45228;-73
2022/10/31 10:49:18;;;;;;;;;2.00;1.00;;;;;24.80;44.26;101246.16;5015444;28;45806;-73
2022/10/31 10:51:58;;;;;;;;;3.00;1.00;;;;;24.79;44.51;101231.22;5016081;28;45430;-74
2022/10/31 10:54:37;;;;;;;;;2.00;0.33;;;;;24.79;44.21;101230.41;5003580;28;45710;-74
2022/10/31 10:57:21;;;;;;;;;1.00;1.00;;;;;24.79;44.22;101207.28;5015764;28;45334;-74
2022/10/31 10:59:46;;;;;;;;;1.00;1.00;;;;;24.78;44.19;101210.09;5015477;28;46132;-74
2022/10/31 11:02:20;;;;;;;;;1.00;1.00;;;;;24.79;44.34;101203.78;5015500;28;45347;-73
2022/10/31 11:04:51;;;;;;;;;4.00;1.00;;;;;24.79;44.29;101207.28;5016250;28;45426;-74
2022/10/31 11:07:16;;;;;;;;;1.67;1.33;;;;;24.73;44.25;101195.56;5004800;28;45366;-74
2022/10/31 11:09:42;;;;;;;;;1.00;0.00;;;;;24.78;44.29;101192.31;5012783;28;46770;-74
2022/10/31 11:12:09;;;;;;;;;1.00;1.00;;;;;24.71;44.28;101186.94;5015852;28;45299;-74
2022/10/31 11:14:51;;;;;;;;;1.00;1.00;;;;;24.74;44.16;101177.75;5015584;28;45376;-75
2022/10/31 11:17:26;;;;;;;;;0.00;0.00;;;;;24.81;44.24;101175.16;5020602;28;45506;-74
2022/10/31 11:20:13;;;;;;;;;1.00;1.00;;;;;24.82;44.15;101166.16;5018733;28;46968;-74
2022/10/31 11:22:41;;;;;;;;;0.67;0.67;;;;;24.76;44.23;101158.94;5015509;28;45334;-74
2022/10/31 11:25:19;;;;;;;;;1.00;1.00;;;;;24.82;44.38;101153.69;5015304;28;45345;-74
2022/10/31 11:27:44;;;;;;;;;1.00;1.00;;;;;24.81;44.13;101152.03;5015357;28;45354;-73
2022/10/31 11:30:12;;;;;;;;;0.00;0.00;;;;;24.48;44.22;101080.72;5015188;28;47430;-74
2022/10/31 11:32:45;;;;;;;;;2.00;1.00;;;;;24.82;44.33;101137.72;5015528;28;45707;-74
2022/10/31 11:35:17;;;;;;;;;0.33;0.33;;;;;24.65;44.37;101099.91;5015416;28;45379;-74
2022/10/31 11:37:44;;;;;;;;;2.00;2.00;;;;;24.85;44.25;101123.19;5015272;28;45516;-74
2022/10/31 11:40:36;;;;;;;;;1.00;1.00;;;;;24.76;44.16;101093.22;5015086;28;47388;-74